Historyczne dane pomiarowe

Dodano dane terminowe – wersja testowa.

Dane z okresu 1951-2019

Wersja bazy: 1.34 [2019-03-16, lista zmian], aktualizacja planowana na 2019-04-15

Dane meteo z obszaru Polski uzyskane na podstawie danych udostępnionych przez Instytut Meteorologii i Gospodarki Wodnej – Państwowy Instytut Badawczy.

 

Wybierz Datę:    

       

TemperaturaWilgotnośćWiatrCiśnienieOpadyŚniegCzas trwania zjawisk
 Stacja t tx tn tng RH VA  wxwx mslp ppp RRR   cm mm wxwxwxwxwxwxwx
1999-08-14 14.7 22.6 5.3 2.1 54.0- 2.3 1.3---- 1.3------------
1999-08-13 14.2 19.7 8.0 4.7 67.3- 3.7 0.0---- 0.0------------
1999-08-12 14.4 20.9 7.2 3.2 67.0- 3.7 1.3---- 0.0------------
1999-08-11 17.1 22.6 11.6 2.5 77.8- 3.0 2.3---- 0.0------------
1999-08-10 19.8 24.6 12.2 6.9 70.0- 4.3 1.0---- 0.5------------
1999-08-09 20.0 26.0 12.2 4.5 73.5- 3.7 0.3---- 0.0------------
1999-08-08 22.1 30.1 14.0 9.7 61.8- 2.7 1.0---- 6.2------------
1999-08-07 21.9 29.4 12.0 5.7 58.0- 3.3 0.0---- 0.0------------
1999-08-06 21.3 28.3 15.0 8.7 63.3- 3.3 1.7---- 0.0------------
1999-08-05 20.0 28.1 11.2 3.2 43.8- 4.3 1.3---- 0.0------------
1999-08-04 19.6 28.1 10.4 2.6 48.0- 1.7 1.0---- 0.0------------
1999-08-03 19.0 27.4 10.6 1.2 44.3- 2.0 0.7---- 0.0------------
1999-08-02 18.9 26.7 9.6 1.8 49.0- 3.3 0.7---- 0.0------------
1999-08-01 19.2 27.6 10.1 5.7 51.5- 2.7 1.3---- 0.0------------
1999-07-31 20.4 27.9 13.7 10.0 53.0- 2.7 1.0---- 0.0------------
1999-07-30 18.8 25.7 9.3 7.8 53.0- 2.3 1.3---- 0.0------------
1999-07-29 18.7 25.7 11.5 8.2 56.3- 1.7 1.0---- 0.0------------
1999-07-28 17.7 25.2 8.5 5.6 56.0- 1.7 0.7---- 0.0------------
1999-07-27 17.5 22.9 11.6 8.2 57.3- 2.3 1.7---- 0.0------------
1999-07-26 20.7 28.6 11.7 10.9 60.8- 3.0 1.0---- 0.0------------
1999-07-25 19.7 26.6 12.7 9.1 67.0- 3.3 1.0---- 0.0------------
1999-07-24 15.9 19.6 12.3 11.1 74.3- 5.0 1.0---- 0.0------------
1999-07-23 14.8 19.8 10.0 8.2 73.5- 4.7 1.3---- 0.0------------
1999-07-22 16.8 22.7 11.5 8.7 64.0- 3.7 1.0---- 0.0------------
1999-07-21 21.3 28.1 13.7 11.7 65.8- 2.3 2.0---- 0.2------------
1999-07-20 22.8 32.1 14.0 10.1 56.3- 3.0 2.7---- 1.9------------
1999-07-19 23.0 30.7 13.2 10.7 48.3- 2.3 1.0---- 0.0------------
1999-07-18 21.3 28.1 12.3 10.9 54.0- 2.0 1.0---- 0.0------------
1999-07-17 17.6 25.6 6.7 4.2 61.3- 1.7 0.7---- 0.0------------
1999-07-16 16.3 22.6 10.6 8.3 67.5- 4.0 1.0---- 0.0------------
1999-07-15 15.5 21.0 12.0 10.7 79.8- 4.0 0.7---- 0.0------------
1999-07-14 19.5 25.3 17.0 14.2 84.0- 6.3 1.7---- 10.5------------
1999-07-13 21.5 25.1 17.5 15.9 78.0- 4.7 1.0---- 0.0------------
1999-07-12 21.8 28.2 17.3 15.3 70.3- 4.3 1.0---- 0.0------------
1999-07-11 18.6 24.1 11.2 10.9 76.3- 4.0 1.7---- 0.0------------
1999-07-10 19.6 26.1 12.0 11.2 65.0- 2.0 3.7---- 0.0------------
1999-07-09 17.9 23.1 10.6 9.1 79.5- 5.3 2.3---- 0.0------------
1999-07-08 14.8 17.8 10.7 9.7 90.3- 6.0 2.0---- 6.7------------
1999-07-07 17.2 22.4 12.2 10.3 90.0- 5.0 0.0---- 0.2------------
1999-07-06 21.5 27.4 15.0 12.3 75.8- 6.0 1.0---- 9.3------------
1999-07-05 25.4 31.9 19.1 15.9 59.3- 2.3 1.3---- 0.0------------
1999-07-04 21.9 31.3 13.5 10.4 69.5- 1.7 1.0---- 0.5------------
1999-07-03 19.7 26.9 10.1 9.1 70.5- 3.0 0.3---- 0.0------------
1999-07-02 16.9 22.2 11.1 10.0 93.5- 4.7 0.3---- 8.9------------
1999-07-01 19.3 24.3 15.6 14.5 84.8- 5.0 1.0---- 13.1------------
1999-06-30 19.4 26.2 10.3 0.5 64.0- 3.7 0.3---- 0.5------------
1999-06-29 16.3 23.7 7.5 1.8 63.8- 2.3 1.3---- 0.0------------
1999-06-28 18.2 26.6 8.2 6.2 73.5- 3.7 1.7---- 0.0------------
1999-06-27 17.9 24.7 8.0 1.8 69.5- 4.0 1.0---- 0.2------------
1999-06-26 13.8 20.8 2.4 -4.9 73.0- 2.7 0.7---- 0.0------------
1999-06-25 12.7 17.4 5.5 0.6 68.0- 3.7 0.3---- 0.0------------
1999-06-24 12.0 18.4 3.9 -2.7 70.3- 4.0 0.0---- 0.0------------
1999-06-23 11.3 17.7 5.0 1.2 75.0- 3.0 2.0---- 0.0------------
1999-06-22 9.5 12.4 5.5 2.3 96.5- 7.0 1.7---- 15.3------------
1999-06-21 14.5 20.3 8.5 4.7 82.0- 6.0 2.0---- 4.6------------
1999-06-20 15.6 23.2 8.5 4.2 86.3- 3.0 1.0---- 0.0------------
1999-06-19 14.4 18.9 8.0 5.2 89.3- 5.3 1.3---- 0.0------------
1999-06-18 14.6 19.0 9.6 4.7 93.0- 6.3 3.7---- 9.8------------
1999-06-17 17.0 22.1 10.1 4.2 86.0- 3.7 0.7---- 0.0------------
1999-06-16 16.6 21.8 9.7 5.6 75.8- 3.3 1.3---- 0.0------------
493.8 ms

 

Źródłem pochodzenia danych jest Instytut Meteorologii i Gospodarki Wodnej – Państwowy Instytut Badawczy. Dane Instytutu Meteorologii i Gospodarki Wodnej – Państwowego Instytutu Badawczego zostały przetworzone.

Dane źródłowe można odnaleźć na stronie https://dane.imgw.pl